sensor_id;sensor_type;location;lat;lon;timestamp;temperature;humidity
13682;DHT22;6913;49.892;7.936;2023-06-14T00:01:07;16.70;99.90
13682;DHT22;6913;49.892;7.936;2023-06-14T00:03:35;16.70;99.90
13682;DHT22;6913;49.892;7.936;2023-06-14T00:06:02;16.70;99.90
13682;DHT22;6913;49.892;7.936;2023-06-14T00:08:28;16.70;99.90
13682;DHT22;6913;49.892;7.936;2023-06-14T00:10:55;16.60;99.90
13682;DHT22;6913;49.892;7.936;2023-06-14T00:13:22;16.60;99.90
13682;DHT22;6913;49.892;7.936;2023-06-14T00:15:51;16.50;99.90
13682;DHT22;6913;49.892;7.936;2023-06-14T00:18:20;16.60;99.90
13682;DHT22;6913;49.892;7.936;2023-06-14T00:20:50;16.50;99.90
13682;DHT22;6913;49.892;7.936;2023-06-14T00:23:17;16.20;99.90
13682;DHT22;6913;49.892;7.936;2023-06-14T00:25:44;16.10;99.90
13682;DHT22;6913;49.892;7.936;2023-06-14T00:28:11;16.00;99.90
13682;DHT22;6913;49.892;7.936;2023-06-14T00:30:38;15.90;99.90
13682;DHT22;6913;49.892;7.936;2023-06-14T00:33:06;15.90;99.90
13682;DHT22;6913;49.892;7.936;2023-06-14T00:35:33;15.90;99.90
13682;DHT22;6913;49.892;7.936;2023-06-14T00:38:01;15.50;99.90
13682;DHT22;6913;49.892;7.936;2023-06-14T00:40:28;15.60;99.90
13682;DHT22;6913;49.892;7.936;2023-06-14T00:42:55;15.50;99.90
13682;DHT22;6913;49.892;7.936;2023-06-14T00:45:22;15.30;99.90
13682;DHT22;6913;49.892;7.936;2023-06-14T00:47:50;15.20;99.90
13682;DHT22;6913;49.892;7.936;2023-06-14T00:50:20;15.20;99.90
13682;DHT22;6913;49.892;7.936;2023-06-14T00:52:47;15.30;99.90
13682;DHT22;6913;49.892;7.936;2023-06-14T00:55:14;15.30;99.90
13682;DHT22;6913;49.892;7.936;2023-06-14T00:57:41;14.90;99.90
13682;DHT22;6913;49.892;7.936;2023-06-14T01:00:09;14.50;99.90
13682;DHT22;6913;49.892;7.936;2023-06-14T01:02:37;14.60;99.90
13682;DHT22;6913;49.892;7.936;2023-06-14T01:05:05;14.70;99.90
13682;DHT22;6913;49.892;7.936;2023-06-14T01:07:45;14.40;99.90
13682;DHT22;6913;49.892;7.936;2023-06-14T01:10:34;14.20;99.90
13682;DHT22;6913;49.892;7.936;2023-06-14T01:13:07;14.30;99.90
13682;DHT22;6913;49.892;7.936;2023-06-14T01:15:34;14.40;99.90
13682;DHT22;6913;49.892;7.936;2023-06-14T01:18:01;14.40;99.90
13682;DHT22;6913;49.892;7.936;2023-06-14T01:20:31;14.00;99.90
13682;DHT22;6913;49.892;7.936;2023-06-14T01:23:00;13.80;99.90
13682;DHT22;6913;49.892;7.936;2023-06-14T01:25:27;13.80;99.90
13682;DHT22;6913;49.892;7.936;2023-06-14T01:27:57;13.60;99.90
13682;DHT22;6913;49.892;7.936;2023-06-14T01:30:25;13.70;99.90
13682;DHT22;6913;49.892;7.936;2023-06-14T01:32:54;13.20;99.90
13682;DHT22;6913;49.892;7.936;2023-06-14T01:35:22;13.40;99.90
13682;DHT22;6913;49.892;7.936;2023-06-14T01:37:49;13.10;99.90
13682;DHT22;6913;49.892;7.936;2023-06-14T01:40:18;13.20;99.90
13682;DHT22;6913;49.892;7.936;2023-06-14T01:42:46;13.10;99.90
13682;DHT22;6913;49.892;7.936;2023-06-14T01:45:14;13.40;99.90
13682;DHT22;6913;49.892;7.936;2023-06-14T01:47:41;13.20;99.90
13682;DHT22;6913;49.892;7.936;2023-06-14T01:50:09;13.00;99.90
13682;DHT22;6913;49.892;7.936;2023-06-14T01:52:36;13.20;99.90
13682;DHT22;6913;49.892;7.936;2023-06-14T01:55:04;13.00;99.90
13682;DHT22;6913;49.892;7.936;2023-06-14T01:57:32;12.90;99.90
13682;DHT22;6913;49.892;7.936;2023-06-14T01:59:59;12.80;99.90
13682;DHT22;6913;49.892;7.936;2023-06-14T02:02:26;12.90;99.90
13682;DHT22;6913;49.892;7.936;2023-06-14T02:04:53;13.00;99.90
13682;DHT22;6913;49.892;7.936;2023-06-14T02:07:22;13.00;99.90
13682;DHT22;6913;49.892;7.936;2023-06-14T02:09:49;13.10;99.90
13682;DHT22;6913;49.892;7.936;2023-06-14T02:12:16;13.20;99.90
13682;DHT22;6913;49.892;7.936;2023-06-14T02:14:44;13.10;99.90
13682;DHT22;6913;49.892;7.936;2023-06-14T02:17:11;12.80;99.90
13682;DHT22;6913;49.892;7.936;2023-06-14T02:19:38;12.80;99.90
13682;DHT22;6913;49.892;7.936;2023-06-14T02:22:05;13.00;99.90
13682;DHT22;6913;49.892;7.936;2023-06-14T02:24:32;13.10;99.90
13682;DHT22;6913;49.892;7.936;2023-06-14T02:26:58;13.00;99.90
13682;DHT22;6913;49.892;7.936;2023-06-14T02:29:25;13.10;99.90
13682;DHT22;6913;49.892;7.936;2023-06-14T02:31:53;12.90;99.90
13682;DHT22;6913;49.892;7.936;2023-06-14T02:34:20;13.00;99.90
13682;DHT22;6913;49.892;7.936;2023-06-14T02:36:47;13.10;99.90
13682;DHT22;6913;49.892;7.936;2023-06-14T02:39:14;13.10;99.90
13682;DHT22;6913;49.892;7.936;2023-06-14T02:41:41;13.10;99.90
13682;DHT22;6913;49.892;7.936;2023-06-14T02:44:09;13.10;99.90
13682;DHT22;6913;49.892;7.936;2023-06-14T02:46:37;13.00;99.90
13682;DHT22;6913;49.892;7.936;2023-06-14T02:49:05;12.90;99.90
13682;DHT22;6913;49.892;7.936;2023-06-14T02:51:32;12.90;99.90
13682;DHT22;6913;49.892;7.936;2023-06-14T02:53:59;13.20;99.90
13682;DHT22;6913;49.892;7.936;2023-06-14T02:56:25;13.00;99.90
13682;DHT22;6913;49.892;7.936;2023-06-14T02:58:53;13.00;99.90
13682;DHT22;6913;49.892;7.936;2023-06-14T03:01:20;12.80;99.90
13682;DHT22;6913;49.892;7.936;2023-06-14T03:03:47;12.80;99.90
13682;DHT22;6913;49.892;7.936;2023-06-14T03:06:15;12.80;99.90
13682;DHT22;6913;49.892;7.936;2023-06-14T03:08:42;12.70;99.90
13682;DHT22;6913;49.892;7.936;2023-06-14T03:11:09;12.70;99.90
13682;DHT22;6913;49.892;7.936;2023-06-14T03:13:36;12.70;99.90
13682;DHT22;6913;49.892;7.936;2023-06-14T03:16:04;12.70;99.90
13682;DHT22;6913;49.892;7.936;2023-06-14T03:18:32;12.80;99.90
13682;DHT22;6913;49.892;7.936;2023-06-14T03:21:00;12.70;99.90
13682;DHT22;6913;49.892;7.936;2023-06-14T03:23:29;12.70;99.90
13682;DHT22;6913;49.892;7.936;2023-06-14T03:25:56;12.70;99.90
13682;DHT22;6913;49.892;7.936;2023-06-14T03:28:23;12.70;99.90
13682;DHT22;6913;49.892;7.936;2023-06-14T03:30:51;12.70;99.90
13682;DHT22;6913;49.892;7.936;2023-06-14T03:33:18;12.70;99.90
13682;DHT22;6913;49.892;7.936;2023-06-14T03:35:44;12.70;99.90
13682;DHT22;6913;49.892;7.936;2023-06-14T03:38:11;12.70;99.90
13682;DHT22;6913;49.892;7.936;2023-06-14T03:40:39;12.70;99.90
13682;DHT22;6913;49.892;7.936;2023-06-14T03:43:06;12.70;99.90
13682;DHT22;6913;49.892;7.936;2023-06-14T03:45:33;12.70;99.90
13682;DHT22;6913;49.892;7.936;2023-06-14T03:48:00;12.70;99.90
13682;DHT22;6913;49.892;7.936;2023-06-14T03:50:27;12.70;99.90
13682;DHT22;6913;49.892;7.936;2023-06-14T03:52:53;12.70;99.90
13682;DHT22;6913;49.892;7.936;2023-06-14T03:55:20;12.70;99.90
13682;DHT22;6913;49.892;7.936;2023-06-14T03:57:52;12.70;99.90
13682;DHT22;6913;49.892;7.936;2023-06-14T04:00:18;12.80;99.90
13682;DHT22;6913;49.892;7.936;2023-06-14T04:02:45;12.90;99.90
13682;DHT22;6913;49.892;7.936;2023-06-14T04:05:12;13.00;99.90
13682;DHT22;6913;49.892;7.936;2023-06-14T04:07:41;13.10;99.90
13682;DHT22;6913;49.892;7.936;2023-06-14T04:10:11;13.40;99.90
13682;DHT22;6913;49.892;7.936;2023-06-14T04:12:38;13.10;99.90
13682;DHT22;6913;49.892;7.936;2023-06-14T04:15:08;13.80;99.90
13682;DHT22;6913;49.892;7.936;2023-06-14T04:17:36;14.10;99.90
13682;DHT22;6913;49.892;7.936;2023-06-14T04:20:04;14.30;99.90
13682;DHT22;6913;49.892;7.936;2023-06-14T04:22:33;14.40;99.90
13682;DHT22;6913;49.892;7.936;2023-06-14T04:25:00;14.70;99.90
13682;DHT22;6913;49.892;7.936;2023-06-14T04:27:27;14.90;99.90
13682;DHT22;6913;49.892;7.936;2023-06-14T04:29:56;15.10;99.90
13682;DHT22;6913;49.892;7.936;2023-06-14T04:32:26;15.30;99.90
13682;DHT22;6913;49.892;7.936;2023-06-14T04:34:55;14.90;99.90
13682;DHT22;6913;49.892;7.936;2023-06-14T04:37:23;15.20;99.90
13682;DHT22;6913;49.892;7.936;2023-06-14T04:39:50;15.80;99.90
13682;DHT22;6913;49.892;7.936;2023-06-14T04:42:17;15.90;99.90
13682;DHT22;6913;49.892;7.936;2023-06-14T04:44:46;16.20;99.90
13682;DHT22;6913;49.892;7.936;2023-06-14T04:47:14;16.50;99.90
13682;DHT22;6913;49.892;7.936;2023-06-14T04:49:43;16.90;99.90
13682;DHT22;6913;49.892;7.936;2023-06-14T04:52:10;17.10;99.90
13682;DHT22;6913;49.892;7.936;2023-06-14T04:54:38;17.10;99.90
13682;DHT22;6913;49.892;7.936;2023-06-14T04:57:07;17.20;99.90
13682;DHT22;6913;49.892;7.936;2023-06-14T04:59:34;17.50;99.90
13682;DHT22;6913;49.892;7.936;2023-06-14T05:02:02;17.80;99.90
13682;DHT22;6913;49.892;7.936;2023-06-14T05:04:29;18.00;99.90
13682;DHT22;6913;49.892;7.936;2023-06-14T05:06:57;18.00;99.90
13682;DHT22;6913;49.892;7.936;2023-06-14T05:09:24;18.00;99.90
13682;DHT22;6913;49.892;7.936;2023-06-14T05:11:51;18.60;99.90
13682;DHT22;6913;49.892;7.936;2023-06-14T05:14:17;19.20;99.90
13682;DHT22;6913;49.892;7.936;2023-06-14T05:16:44;19.50;99.90
13682;DHT22;6913;49.892;7.936;2023-06-14T05:19:11;19.70;99.90
13682;DHT22;6913;49.892;7.936;2023-06-14T05:21:38;19.90;99.90
13682;DHT22;6913;49.892;7.936;2023-06-14T05:24:07;20.20;99.90
13682;DHT22;6913;49.892;7.936;2023-06-14T05:26:34;20.30;99.90
13682;DHT22;6913;49.892;7.936;2023-06-14T05:29:01;20.60;99.90
13682;DHT22;6913;49.892;7.936;2023-06-14T05:31:28;20.90;99.90
13682;DHT22;6913;49.892;7.936;2023-06-14T05:33:55;21.10;99.90
13682;DHT22;6913;49.892;7.936;2023-06-14T05:36:22;21.40;99.90
13682;DHT22;6913;49.892;7.936;2023-06-14T05:38:49;21.80;99.90
13682;DHT22;6913;49.892;7.936;2023-06-14T05:41:24;21.80;99.90
13682;DHT22;6913;49.892;7.936;2023-06-14T05:43:51;22.60;99.90
13682;DHT22;6913;49.892;7.936;2023-06-14T05:46:18;23.10;99.90
13682;DHT22;6913;49.892;7.936;2023-06-14T05:48:47;23.10;99.80
13682;DHT22;6913;49.892;7.936;2023-06-14T05:51:14;22.90;99.70
13682;DHT22;6913;49.892;7.936;2023-06-14T05:53:44;23.10;99.90
13682;DHT22;6913;49.892;7.936;2023-06-14T05:56:11;23.20;99.90
13682;DHT22;6913;49.892;7.936;2023-06-14T05:58:39;22.60;99.90
13682;DHT22;6913;49.892;7.936;2023-06-14T06:01:06;21.60;99.90
13682;DHT22;6913;49.892;7.936;2023-06-14T06:03:33;21.50;99.90
13682;DHT22;6913;49.892;7.936;2023-06-14T06:06:00;22.50;99.90
13682;DHT22;6913;49.892;7.936;2023-06-14T06:08:28;23.40;99.90
13682;DHT22;6913;49.892;7.936;2023-06-14T06:10:55;24.00;99.40
13682;DHT22;6913;49.892;7.936;2023-06-14T06:13:22;23.40;99.00
13682;DHT22;6913;49.892;7.936;2023-06-14T06:15:50;22.80;99.90
13682;DHT22;6913;49.892;7.936;2023-06-14T06:18:17;21.90;99.90
13682;DHT22;6913;49.892;7.936;2023-06-14T06:20:44;22.70;99.90
13682;DHT22;6913;49.892;7.936;2023-06-14T06:23:12;23.10;99.20
13682;DHT22;6913;49.892;7.936;2023-06-14T06:25:39;23.90;97.60
13682;DHT22;6913;49.892;7.936;2023-06-14T06:28:07;24.20;94.70
13682;DHT22;6913;49.892;7.936;2023-06-14T06:30:33;23.80;96.10
13682;DHT22;6913;49.892;7.936;2023-06-14T06:33:03;22.80;97.50
13682;DHT22;6913;49.892;7.936;2023-06-14T06:35:29;22.40;95.70
13682;DHT22;6913;49.892;7.936;2023-06-14T06:37:58;21.80;96.50
13682;DHT22;6913;49.892;7.936;2023-06-14T06:40:25;22.40;95.50
13682;DHT22;6913;49.892;7.936;2023-06-14T06:42:52;22.70;94.60
13682;DHT22;6913;49.892;7.936;2023-06-14T06:45:20;22.50;95.80
13682;DHT22;6913;49.892;7.936;2023-06-14T06:47:48;22.70;94.90
13682;DHT22;6913;49.892;7.936;2023-06-14T06:50:18;22.40;94.40
13682;DHT22;6913;49.892;7.936;2023-06-14T06:52:45;22.60;95.50
13682;DHT22;6913;49.892;7.936;2023-06-14T06:55:12;22.70;94.50
13682;DHT22;6913;49.892;7.936;2023-06-14T06:57:39;22.20;94.90
13682;DHT22;6913;49.892;7.936;2023-06-14T07:00:07;22.10;94.80
13682;DHT22;6913;49.892;7.936;2023-06-14T07:02:35;22.30;94.80
13682;DHT22;6913;49.892;7.936;2023-06-14T07:05:01;22.50;93.60
13682;DHT22;6913;49.892;7.936;2023-06-14T07:07:30;22.10;94.40
13682;DHT22;6913;49.892;7.936;2023-06-14T07:09:56;21.80;93.90
13682;DHT22;6913;49.892;7.936;2023-06-14T07:12:24;21.80;95.10
13682;DHT22;6913;49.892;7.936;2023-06-14T07:14:51;21.50;94.20
13682;DHT22;6913;49.892;7.936;2023-06-14T07:17:18;21.50;96.20
13682;DHT22;6913;49.892;7.936;2023-06-14T07:19:44;22.00;95.40
13682;DHT22;6913;49.892;7.936;2023-06-14T07:22:11;22.10;95.60
13682;DHT22;6913;49.892;7.936;2023-06-14T07:24:39;22.00;94.70
13682;DHT22;6913;49.892;7.936;2023-06-14T07:27:07;22.20;95.00
13682;DHT22;6913;49.892;7.936;2023-06-14T07:29:34;22.60;95.50
13682;DHT22;6913;49.892;7.936;2023-06-14T07:32:01;22.70;94.90
13682;DHT22;6913;49.892;7.936;2023-06-14T07:34:28;22.20;95.70
13682;DHT22;6913;49.892;7.936;2023-06-14T07:36:54;22.30;96.50
13682;DHT22;6913;49.892;7.936;2023-06-14T07:39:21;22.60;94.40
13682;DHT22;6913;49.892;7.936;2023-06-14T07:41:50;22.40;95.00
13682;DHT22;6913;49.892;7.936;2023-06-14T07:44:17;22.00;95.00
13682;DHT22;6913;49.892;7.936;2023-06-14T07:46:43;22.20;94.70
13682;DHT22;6913;49.892;7.936;2023-06-14T07:49:11;22.20;93.80
13682;DHT22;6913;49.892;7.936;2023-06-14T07:51:38;22.30;94.80
13682;DHT22;6913;49.892;7.936;2023-06-14T07:54:05;22.30;94.80
13682;DHT22;6913;49.892;7.936;2023-06-14T07:56:34;22.50;93.70
13682;DHT22;6913;49.892;7.936;2023-06-14T07:59:03;22.50;93.60
13682;DHT22;6913;49.892;7.936;2023-06-14T08:01:31;22.10;95.20
13682;DHT22;6913;49.892;7.936;2023-06-14T08:03:58;22.50;94.50
13682;DHT22;6913;49.892;7.936;2023-06-14T08:06:26;22.80;95.00
13682;DHT22;6913;49.892;7.936;2023-06-14T08:08:52;22.80;92.00
13682;DHT22;6913;49.892;7.936;2023-06-14T08:11:19;22.70;91.10
13682;DHT22;6913;49.892;7.936;2023-06-14T08:13:46;22.70;93.80
13682;DHT22;6913;49.892;7.936;2023-06-14T08:16:14;23.10;93.50
13682;DHT22;6913;49.892;7.936;2023-06-14T08:18:41;22.60;95.10
13682;DHT22;6913;49.892;7.936;2023-06-14T08:21:08;22.40;94.70
13682;DHT22;6913;49.892;7.936;2023-06-14T08:23:35;23.10;94.00
13682;DHT22;6913;49.892;7.936;2023-06-14T08:26:02;22.90;91.30
13682;DHT22;6913;49.892;7.936;2023-06-14T08:28:29;23.00;92.00
13682;DHT22;6913;49.892;7.936;2023-06-14T08:30:56;23.00;92.10
13682;DHT22;6913;49.892;7.936;2023-06-14T08:33:24;23.00;92.50
13682;DHT22;6913;49.892;7.936;2023-06-14T08:35:51;22.80;91.60
13682;DHT22;6913;49.892;7.936;2023-06-14T08:38:18;23.20;92.90
13682;DHT22;6913;49.892;7.936;2023-06-14T08:40:45;22.80;86.30
13682;DHT22;6913;49.892;7.936;2023-06-14T08:43:14;23.00;88.70
13682;DHT22;6913;49.892;7.936;2023-06-14T08:45:41;23.50;84.90
13682;DHT22;6913;49.892;7.936;2023-06-14T08:48:08;23.20;88.70
13682;DHT22;6913;49.892;7.936;2023-06-14T08:50:37;23.30;88.00
13682;DHT22;6913;49.892;7.936;2023-06-14T08:53:08;23.40;90.10
13682;DHT22;6913;49.892;7.936;2023-06-14T08:55:36;23.30;88.90
13682;DHT22;6913;49.892;7.936;2023-06-14T08:58:05;23.10;89.40
13682;DHT22;6913;49.892;7.936;2023-06-14T09:00:35;22.90;90.40
13682;DHT22;6913;49.892;7.936;2023-06-14T09:03:04;23.00;87.00
13682;DHT22;6913;49.892;7.936;2023-06-14T09:05:31;23.10;85.20
13682;DHT22;6913;49.892;7.936;2023-06-14T09:07:59;23.50;82.60
13682;DHT22;6913;49.892;7.936;2023-06-14T09:10:27;23.40;83.80
13682;DHT22;6913;49.892;7.936;2023-06-14T09:12:55;24.00;91.80
13682;DHT22;6913;49.892;7.936;2023-06-14T09:15:22;23.70;84.90
13682;DHT22;6913;49.892;7.936;2023-06-14T09:17:49;23.70;88.40
13682;DHT22;6913;49.892;7.936;2023-06-14T09:20:17;23.70;82.90
13682;DHT22;6913;49.892;7.936;2023-06-14T09:22:44;23.90;86.60
13682;DHT22;6913;49.892;7.936;2023-06-14T09:25:12;24.70;86.50
13682;DHT22;6913;49.892;7.936;2023-06-14T09:27:41;25.10;85.50
13682;DHT22;6913;49.892;7.936;2023-06-14T09:30:09;25.00;84.80
13682;DHT22;6913;49.892;7.936;2023-06-14T09:32:37;25.40;84.60
13682;DHT22;6913;49.892;7.936;2023-06-14T09:35:05;25.30;85.20
13682;DHT22;6913;49.892;7.936;2023-06-14T09:37:33;24.40;84.30
13682;DHT22;6913;49.892;7.936;2023-06-14T09:40:00;24.40;87.60
13682;DHT22;6913;49.892;7.936;2023-06-14T09:42:28;24.30;89.70
13682;DHT22;6913;49.892;7.936;2023-06-14T09:44:56;24.80;87.10
13682;DHT22;6913;49.892;7.936;2023-06-14T09:47:24;25.30;83.00
13682;DHT22;6913;49.892;7.936;2023-06-14T09:49:51;24.50;84.20
13682;DHT22;6913;49.892;7.936;2023-06-14T09:52:21;24.60;88.40
13682;DHT22;6913;49.892;7.936;2023-06-14T09:54:48;25.50;89.40
13682;DHT22;6913;49.892;7.936;2023-06-14T09:57:16;25.30;83.60
13682;DHT22;6913;49.892;7.936;2023-06-14T09:59:45;25.50;83.30
13682;DHT22;6913;49.892;7.936;2023-06-14T10:02:21;25.40;85.10
13682;DHT22;6913;49.892;7.936;2023-06-14T10:04:53;25.10;81.60
13682;DHT22;6913;49.892;7.936;2023-06-14T10:07:26;24.90;84.20
13682;DHT22;6913;49.892;7.936;2023-06-14T10:09:56;25.00;85.10
13682;DHT22;6913;49.892;7.936;2023-06-14T10:12:22;25.10;85.10
13682;DHT22;6913;49.892;7.936;2023-06-14T10:14:51;25.10;84.60
13682;DHT22;6913;49.892;7.936;2023-06-14T10:17:25;24.50;85.90
13682;DHT22;6913;49.892;7.936;2023-06-14T10:19:58;24.40;86.50
13682;DHT22;6913;49.892;7.936;2023-06-14T10:22:33;24.70;90.00
13682;DHT22;6913;49.892;7.936;2023-06-14T10:25:03;24.40;85.90
13682;DHT22;6913;49.892;7.936;2023-06-14T10:27:37;25.00;81.50
13682;DHT22;6913;49.892;7.936;2023-06-14T10:30:07;25.10;81.50
13682;DHT22;6913;49.892;7.936;2023-06-14T10:32:34;24.90;85.20
13682;DHT22;6913;49.892;7.936;2023-06-14T10:35:04;24.90;83.00
13682;DHT22;6913;49.892;7.936;2023-06-14T10:37:32;25.10;84.30
13682;DHT22;6913;49.892;7.936;2023-06-14T10:39:59;25.10;83.00
13682;DHT22;6913;49.892;7.936;2023-06-14T10:42:28;24.70;78.80
13682;DHT22;6913;49.892;7.936;2023-06-14T10:44:58;24.20;85.60
13682;DHT22;6913;49.892;7.936;2023-06-14T10:47:28;24.90;87.00
13682;DHT22;6913;49.892;7.936;2023-06-14T10:49:56;24.70;86.80
13682;DHT22;6913;49.892;7.936;2023-06-14T10:52:26;25.00;80.10
13682;DHT22;6913;49.892;7.936;2023-06-14T10:55:15;24.80;83.40
13682;DHT22;6913;49.892;7.936;2023-06-14T10:57:45;25.30;84.20
13682;DHT22;6913;49.892;7.936;2023-06-14T11:00:14;26.20;77.50
13682;DHT22;6913;49.892;7.936;2023-06-14T11:05:56;26.60;73.40
13682;DHT22;6913;49.892;7.936;2023-06-14T11:08:56;27.30;71.90
13682;DHT22;6913;49.892;7.936;2023-06-14T11:11:32;25.80;75.40
13682;DHT22;6913;49.892;7.936;2023-06-14T11:14:00;25.90;75.60
13682;DHT22;6913;49.892;7.936;2023-06-14T11:16:27;25.60;78.90
13682;DHT22;6913;49.892;7.936;2023-06-14T11:18:55;25.70;76.20
13682;DHT22;6913;49.892;7.936;2023-06-14T11:21:24;25.30;72.30
13682;DHT22;6913;49.892;7.936;2023-06-14T11:23:56;24.60;75.60
13682;DHT22;6913;49.892;7.936;2023-06-14T11:26:26;25.20;78.10
13682;DHT22;6913;49.892;7.936;2023-06-14T11:28:57;26.70;71.00
13682;DHT22;6913;49.892;7.936;2023-06-14T11:31:24;26.30;71.00
13682;DHT22;6913;49.892;7.936;2023-06-14T11:33:53;25.00;69.80
13682;DHT22;6913;49.892;7.936;2023-06-14T11:36:20;24.80;72.00
13682;DHT22;6913;49.892;7.936;2023-06-14T11:38:48;24.80;74.00
13682;DHT22;6913;49.892;7.936;2023-06-14T11:41:15;25.00;80.70
13682;DHT22;6913;49.892;7.936;2023-06-14T11:43:42;25.60;74.40
13682;DHT22;6913;49.892;7.936;2023-06-14T11:46:15;26.30;68.30
13682;DHT22;6913;49.892;7.936;2023-06-14T11:48:43;27.00;65.10
13682;DHT22;6913;49.892;7.936;2023-06-14T11:51:10;26.60;69.60
13682;DHT22;6913;49.892;7.936;2023-06-14T11:53:37;25.40;70.50
13682;DHT22;6913;49.892;7.936;2023-06-14T11:56:06;25.30;71.00
13682;DHT22;6913;49.892;7.936;2023-06-14T11:58:33;25.60;69.80
13682;DHT22;6913;49.892;7.936;2023-06-14T12:01:00;26.00;66.70
13682;DHT22;6913;49.892;7.936;2023-06-14T12:03:29;26.10;71.20
13682;DHT22;6913;49.892;7.936;2023-06-14T12:06:04;25.80;71.00
13682;DHT22;6913;49.892;7.936;2023-06-14T12:08:33;26.60;64.70
13682;DHT22;6913;49.892;7.936;2023-06-14T12:11:05;27.20;68.70
13682;DHT22;6913;49.892;7.936;2023-06-14T12:13:34;27.50;61.50
13682;DHT22;6913;49.892;7.936;2023-06-14T12:16:01;26.20;64.20
13682;DHT22;6913;49.892;7.936;2023-06-14T12:18:32;25.40;67.00
13682;DHT22;6913;49.892;7.936;2023-06-14T12:21:00;25.00;69.30
13682;DHT22;6913;49.892;7.936;2023-06-14T12:23:39;26.10;68.80
13682;DHT22;6913;49.892;7.936;2023-06-14T12:26:07;26.30;66.20
13682;DHT22;6913;49.892;7.936;2023-06-14T12:28:34;25.30;64.50
13682;DHT22;6913;49.892;7.936;2023-06-14T12:31:01;25.40;65.40
13682;DHT22;6913;49.892;7.936;2023-06-14T12:33:28;25.80;65.20
13682;DHT22;6913;49.892;7.936;2023-06-14T12:35:55;26.30;63.40
13682;DHT22;6913;49.892;7.936;2023-06-14T12:38:23;26.10;63.30
13682;DHT22;6913;49.892;7.936;2023-06-14T12:40:50;26.50;65.70
13682;DHT22;6913;49.892;7.936;2023-06-14T12:43:19;26.50;62.90
13682;DHT22;6913;49.892;7.936;2023-06-14T12:45:46;26.60;61.60
13682;DHT22;6913;49.892;7.936;2023-06-14T12:48:13;26.60;60.60
13682;DHT22;6913;49.892;7.936;2023-06-14T12:50:40;26.70;60.40
13682;DHT22;6913;49.892;7.936;2023-06-14T12:53:07;26.00;63.40
13682;DHT22;6913;49.892;7.936;2023-06-14T12:55:34;26.40;65.30
13682;DHT22;6913;49.892;7.936;2023-06-14T12:58:01;27.00;62.90
13682;DHT22;6913;49.892;7.936;2023-06-14T13:00:29;26.00;59.20
13682;DHT22;6913;49.892;7.936;2023-06-14T13:02:56;26.10;63.00
13682;DHT22;6913;49.892;7.936;2023-06-14T13:05:23;26.60;59.20
13682;DHT22;6913;49.892;7.936;2023-06-14T13:07:50;27.20;59.20
13682;DHT22;6913;49.892;7.936;2023-06-14T13:10:17;27.20;60.40
13682;DHT22;6913;49.892;7.936;2023-06-14T13:12:44;27.10;54.40
13682;DHT22;6913;49.892;7.936;2023-06-14T13:15:11;27.40;54.80
13682;DHT22;6913;49.892;7.936;2023-06-14T13:17:39;26.80;56.20
13682;DHT22;6913;49.892;7.936;2023-06-14T13:20:07;26.50;57.10
13682;DHT22;6913;49.892;7.936;2023-06-14T13:22:35;25.40;58.80
13682;DHT22;6913;49.892;7.936;2023-06-14T13:25:02;26.10;60.50
13682;DHT22;6913;49.892;7.936;2023-06-14T13:27:29;27.10;58.80
13682;DHT22;6913;49.892;7.936;2023-06-14T13:29:56;27.90;53.10
13682;DHT22;6913;49.892;7.936;2023-06-14T13:32:24;27.10;53.00
13682;DHT22;6913;49.892;7.936;2023-06-14T13:34:52;25.70;56.80
13682;DHT22;6913;49.892;7.936;2023-06-14T13:37:19;25.50;59.00
13682;DHT22;6913;49.892;7.936;2023-06-14T13:39:45;25.30;58.70
13682;DHT22;6913;49.892;7.936;2023-06-14T13:42:12;25.60;61.90
13682;DHT22;6913;49.892;7.936;2023-06-14T13:44:39;26.60;58.10
13682;DHT22;6913;49.892;7.936;2023-06-14T13:47:06;26.30;61.90
13682;DHT22;6913;49.892;7.936;2023-06-14T13:49:33;27.20;54.30
13682;DHT22;6913;49.892;7.936;2023-06-14T13:52:02;27.50;55.00
13682;DHT22;6913;49.892;7.936;2023-06-14T13:54:30;27.30;56.30
13682;DHT22;6913;49.892;7.936;2023-06-14T13:56:56;26.20;58.70
13682;DHT22;6913;49.892;7.936;2023-06-14T13:59:23;25.40;62.90
13682;DHT22;6913;49.892;7.936;2023-06-14T14:01:50;24.80;68.00
13682;DHT22;6913;49.892;7.936;2023-06-14T14:04:17;24.40;67.20
13682;DHT22;6913;49.892;7.936;2023-06-14T14:06:44;24.70;67.10
13682;DHT22;6913;49.892;7.936;2023-06-14T14:09:13;24.20;68.20
13682;DHT22;6913;49.892;7.936;2023-06-14T14:11:39;25.10;67.20
13682;DHT22;6913;49.892;7.936;2023-06-14T14:14:07;26.10;63.10
13682;DHT22;6913;49.892;7.936;2023-06-14T14:16:35;26.60;63.70
13682;DHT22;6913;49.892;7.936;2023-06-14T14:19:02;26.00;66.50
13682;DHT22;6913;49.892;7.936;2023-06-14T14:21:30;25.40;64.40
13682;DHT22;6913;49.892;7.936;2023-06-14T14:23:56;25.30;65.20
13682;DHT22;6913;49.892;7.936;2023-06-14T14:26:25;25.50;62.70
13682;DHT22;6913;49.892;7.936;2023-06-14T14:28:52;24.90;67.40
13682;DHT22;6913;49.892;7.936;2023-06-14T14:31:19;25.00;66.90
13682;DHT22;6913;49.892;7.936;2023-06-14T14:33:45;25.70;64.40
13682;DHT22;6913;49.892;7.936;2023-06-14T14:36:12;25.60;66.60
13682;DHT22;6913;49.892;7.936;2023-06-14T14:38:39;25.50;64.20
13682;DHT22;6913;49.892;7.936;2023-06-14T14:41:06;25.50;62.40
13682;DHT22;6913;49.892;7.936;2023-06-14T14:43:34;25.30;64.60
13682;DHT22;6913;49.892;7.936;2023-06-14T14:46:01;25.30;64.30
13682;DHT22;6913;49.892;7.936;2023-06-14T14:48:28;25.40;62.90
13682;DHT22;6913;49.892;7.936;2023-06-14T14:50:55;25.30;63.70
13682;DHT22;6913;49.892;7.936;2023-06-14T14:53:21;25.00;61.60
13682;DHT22;6913;49.892;7.936;2023-06-14T14:55:48;25.20;62.40
13682;DHT22;6913;49.892;7.936;2023-06-14T14:58:15;25.30;63.50
13682;DHT22;6913;49.892;7.936;2023-06-14T15:00:45;25.60;67.20
13682;DHT22;6913;49.892;7.936;2023-06-14T15:03:12;26.40;59.20
13682;DHT22;6913;49.892;7.936;2023-06-14T15:05:38;26.10;61.00
13682;DHT22;6913;49.892;7.936;2023-06-14T15:08:05;26.00;62.90
13682;DHT22;6913;49.892;7.936;2023-06-14T15:10:37;24.90;64.00
13682;DHT22;6913;49.892;7.936;2023-06-14T15:13:06;24.20;64.20
13682;DHT22;6913;49.892;7.936;2023-06-14T15:15:33;24.00;66.00
13682;DHT22;6913;49.892;7.936;2023-06-14T15:18:01;24.20;67.60
13682;DHT22;6913;49.892;7.936;2023-06-14T15:20:28;24.40;63.10
13682;DHT22;6913;49.892;7.936;2023-06-14T15:22:55;23.70;65.00
13682;DHT22;6913;49.892;7.936;2023-06-14T15:25:25;23.70;66.00
13682;DHT22;6913;49.892;7.936;2023-06-14T15:27:51;24.20;64.60
13682;DHT22;6913;49.892;7.936;2023-06-14T15:30:18;24.90;64.60
13682;DHT22;6913;49.892;7.936;2023-06-14T15:32:45;25.30;62.30
13682;DHT22;6913;49.892;7.936;2023-06-14T15:35:16;25.20;60.80
13682;DHT22;6913;49.892;7.936;2023-06-14T15:37:43;24.70;57.60
13682;DHT22;6913;49.892;7.936;2023-06-14T15:40:11;24.70;60.10
13682;DHT22;6913;49.892;7.936;2023-06-14T15:42:37;24.50;62.40
13682;DHT22;6913;49.892;7.936;2023-06-14T15:45:05;24.10;62.40
13682;DHT22;6913;49.892;7.936;2023-06-14T15:47:32;23.60;65.30
13682;DHT22;6913;49.892;7.936;2023-06-14T15:49:59;23.60;66.30
13682;DHT22;6913;49.892;7.936;2023-06-14T15:52:27;23.80;66.70